sensor_id;sensor_type;location;lat;lon;timestamp;P1;durP1;ratioP1;P2;durP2;ratioP2
20861;SDS011;10591;52.532;13.348;2023-03-13T00:00:42;16.85;;;7.92;;
20861;SDS011;10591;52.532;13.348;2023-03-13T00:03:13;14.18;;;7.72;;
20861;SDS011;10591;52.532;13.348;2023-03-13T00:05:44;14.38;;;7.90;;
20861;SDS011;10591;52.532;13.348;2023-03-13T00:08:16;15.70;;;7.90;;
20861;SDS011;10591;52.532;13.348;2023-03-13T00:10:47;14.25;;;7.45;;
20861;SDS011;10591;52.532;13.348;2023-03-13T00:13:19;11.38;;;8.45;;
20861;SDS011;10591;52.532;13.348;2023-03-13T00:15:58;14.03;;;8.48;;
20861;SDS011;10591;52.532;13.348;2023-03-13T00:18:38;17.77;;;8.23;;
20861;SDS011;10591;52.532;13.348;2023-03-13T00:21:10;14.38;;;8.25;;
20861;SDS011;10591;52.532;13.348;2023-03-13T00:23:41;16.87;;;8.33;;
20861;SDS011;10591;52.532;13.348;2023-03-13T00:26:13;14.55;;;7.92;;
20861;SDS011;10591;52.532;13.348;2023-03-13T00:28:45;16.87;;;8.48;;
20861;SDS011;10591;52.532;13.348;2023-03-13T00:31:19;14.83;;;8.13;;
20861;SDS011;10591;52.532;13.348;2023-03-13T00:33:59;14.98;;;8.33;;
20861;SDS011;10591;52.532;13.348;2023-03-13T00:36:31;15.55;;;8.98;;
20861;SDS011;10591;52.532;13.348;2023-03-13T00:39:04;17.07;;;9.38;;
20861;SDS011;10591;52.532;13.348;2023-03-13T00:41:35;14.05;;;7.90;;
20861;SDS011;10591;52.532;13.348;2023-03-13T00:44:06;15.88;;;8.15;;
20861;SDS011;10591;52.532;13.348;2023-03-13T00:46:37;15.30;;;8.03;;
20861;SDS011;10591;52.532;13.348;2023-03-13T00:49:09;17.70;;;8.10;;
20861;SDS011;10591;52.532;13.348;2023-03-13T00:51:40;18.05;;;9.28;;
20861;SDS011;10591;52.532;13.348;2023-03-13T00:54:13;18.73;;;9.83;;
20861;SDS011;10591;52.532;13.348;2023-03-13T00:56:44;15.85;;;8.35;;
20861;SDS011;10591;52.532;13.348;2023-03-13T00:59:14;19.23;;;9.28;;
20861;SDS011;10591;52.532;13.348;2023-03-13T01:01:46;13.75;;;8.30;;
20861;SDS011;10591;52.532;13.348;2023-03-13T01:04:18;15.67;;;8.80;;
20861;SDS011;10591;52.532;13.348;2023-03-13T01:06:50;14.58;;;8.38;;
20861;SDS011;10591;52.532;13.348;2023-03-13T01:09:21;13.35;;;7.78;;
20861;SDS011;10591;52.532;13.348;2023-03-13T01:11:54;17.95;;;9.00;;
20861;SDS011;10591;52.532;13.348;2023-03-13T01:14:24;18.57;;;8.95;;
20861;SDS011;10591;52.532;13.348;2023-03-13T01:16:55;16.07;;;8.53;;
20861;SDS011;10591;52.532;13.348;2023-03-13T01:19:27;15.53;;;8.50;;
20861;SDS011;10591;52.532;13.348;2023-03-13T01:21:58;13.30;;;8.70;;
20861;SDS011;10591;52.532;13.348;2023-03-13T01:24:28;16.02;;;8.80;;
20861;SDS011;10591;52.532;13.348;2023-03-13T01:27:02;11.20;;;8.15;;
20861;SDS011;10591;52.532;13.348;2023-03-13T01:29:33;13.25;;;8.38;;
20861;SDS011;10591;52.532;13.348;2023-03-13T01:32:04;15.58;;;8.18;;
20861;SDS011;10591;52.532;13.348;2023-03-13T01:34:37;13.90;;;8.10;;
20861;SDS011;10591;52.532;13.348;2023-03-13T01:37:09;17.48;;;8.98;;
20861;SDS011;10591;52.532;13.348;2023-03-13T01:39:41;11.45;;;7.85;;
20861;SDS011;10591;52.532;13.348;2023-03-13T01:42:12;17.07;;;8.60;;
20861;SDS011;10591;52.532;13.348;2023-03-13T01:44:49;16.42;;;8.08;;
20861;SDS011;10591;52.532;13.348;2023-03-13T01:47:22;14.90;;;8.30;;
20861;SDS011;10591;52.532;13.348;2023-03-13T01:49:52;13.62;;;8.13;;
20861;SDS011;10591;52.532;13.348;2023-03-13T01:52:26;13.80;;;7.80;;
20861;SDS011;10591;52.532;13.348;2023-03-13T01:55:04;16.32;;;8.15;;
20861;SDS011;10591;52.532;13.348;2023-03-13T01:57:41;13.30;;;7.65;;
20861;SDS011;10591;52.532;13.348;2023-03-13T02:00:17;16.00;;;8.33;;
20861;SDS011;10591;52.532;13.348;2023-03-13T02:02:53;18.70;;;9.50;;
20861;SDS011;10591;52.532;13.348;2023-03-13T02:05:26;13.78;;;7.83;;
20861;SDS011;10591;52.532;13.348;2023-03-13T02:08:01;15.55;;;8.35;;
20861;SDS011;10591;52.532;13.348;2023-03-13T02:10:41;14.50;;;8.40;;
20861;SDS011;10591;52.532;13.348;2023-03-13T02:13:12;12.47;;;8.03;;
20861;SDS011;10591;52.532;13.348;2023-03-13T02:15:46;13.68;;;8.75;;
20861;SDS011;10591;52.532;13.348;2023-03-13T02:18:19;11.75;;;7.67;;
20861;SDS011;10591;52.532;13.348;2023-03-13T02:20:49;13.43;;;8.10;;
20861;SDS011;10591;52.532;13.348;2023-03-13T02:23:31;12.55;;;7.08;;
20861;SDS011;10591;52.532;13.348;2023-03-13T02:25:59;14.78;;;7.85;;
20861;SDS011;10591;52.532;13.348;2023-03-13T02:28:32;13.35;;;7.47;;
20861;SDS011;10591;52.532;13.348;2023-03-13T02:31:06;14.18;;;7.75;;
20861;SDS011;10591;52.532;13.348;2023-03-13T02:33:40;12.82;;;7.55;;
20861;SDS011;10591;52.532;13.348;2023-03-13T02:36:12;17.10;;;10.05;;
20861;SDS011;10591;52.532;13.348;2023-03-13T02:38:50;14.80;;;8.25;;
20861;SDS011;10591;52.532;13.348;2023-03-13T02:41:29;14.30;;;7.90;;
20861;SDS011;10591;52.532;13.348;2023-03-13T02:44:02;13.25;;;6.45;;
20861;SDS011;10591;52.532;13.348;2023-03-13T02:46:43;17.37;;;7.33;;
20861;SDS011;10591;52.532;13.348;2023-03-13T02:51:59;16.27;;;7.25;;
20861;SDS011;10591;52.532;13.348;2023-03-13T02:54:46;11.75;;;6.25;;
20861;SDS011;10591;52.532;13.348;2023-03-13T02:57:19;13.53;;;6.83;;
20861;SDS011;10591;52.532;13.348;2023-03-13T02:59:51;16.40;;;7.45;;
20861;SDS011;10591;52.532;13.348;2023-03-13T03:02:23;14.98;;;7.05;;
20861;SDS011;10591;52.532;13.348;2023-03-13T03:04:54;13.32;;;5.97;;
20861;SDS011;10591;52.532;13.348;2023-03-13T03:07:24;12.10;;;6.03;;
20861;SDS011;10591;52.532;13.348;2023-03-13T03:09:58;16.10;;;6.87;;
20861;SDS011;10591;52.532;13.348;2023-03-13T03:12:30;12.37;;;5.95;;
20861;SDS011;10591;52.532;13.348;2023-03-13T03:15:00;9.63;;;5.53;;
20861;SDS011;10591;52.532;13.348;2023-03-13T03:17:33;9.23;;;5.97;;
20861;SDS011;10591;52.532;13.348;2023-03-13T03:20:07;13.72;;;6.60;;
20861;SDS011;10591;52.532;13.348;2023-03-13T03:22:39;11.80;;;5.37;;
20861;SDS011;10591;52.532;13.348;2023-03-13T03:25:10;12.23;;;6.00;;
20861;SDS011;10591;52.532;13.348;2023-03-13T03:27:41;8.60;;;5.17;;
20861;SDS011;10591;52.532;13.348;2023-03-13T03:30:12;11.40;;;5.58;;
20861;SDS011;10591;52.532;13.348;2023-03-13T03:32:44;12.05;;;5.70;;
20861;SDS011;10591;52.532;13.348;2023-03-13T03:35:15;12.37;;;5.50;;
20861;SDS011;10591;52.532;13.348;2023-03-13T03:37:46;14.40;;;5.58;;
20861;SDS011;10591;52.532;13.348;2023-03-13T03:40:17;12.60;;;5.60;;
20861;SDS011;10591;52.532;13.348;2023-03-13T03:42:49;10.15;;;5.35;;
20861;SDS011;10591;52.532;13.348;2023-03-13T03:45:21;10.53;;;5.97;;
20861;SDS011;10591;52.532;13.348;2023-03-13T03:47:51;10.63;;;5.58;;
20861;SDS011;10591;52.532;13.348;2023-03-13T03:50:23;14.87;;;5.62;;
20861;SDS011;10591;52.532;13.348;2023-03-13T03:52:56;14.28;;;5.62;;
20861;SDS011;10591;52.532;13.348;2023-03-13T03:55:28;10.18;;;5.62;;
20861;SDS011;10591;52.532;13.348;2023-03-13T03:58:00;14.05;;;5.37;;
20861;SDS011;10591;52.532;13.348;2023-03-13T04:00:31;12.30;;;5.28;;
20861;SDS011;10591;52.532;13.348;2023-03-13T04:03:02;12.18;;;5.03;;
20861;SDS011;10591;52.532;13.348;2023-03-13T04:05:35;11.73;;;5.20;;
20861;SDS011;10591;52.532;13.348;2023-03-13T04:08:08;14.20;;;5.97;;
20861;SDS011;10591;52.532;13.348;2023-03-13T04:10:39;16.52;;;5.55;;
20861;SDS011;10591;52.532;13.348;2023-03-13T04:13:10;12.78;;;5.50;;
20861;SDS011;10591;52.532;13.348;2023-03-13T04:15:40;12.80;;;5.28;;
20861;SDS011;10591;52.532;13.348;2023-03-13T04:18:11;14.05;;;5.20;;
20861;SDS011;10591;52.532;13.348;2023-03-13T04:20:42;11.83;;;5.15;;
20861;SDS011;10591;52.532;13.348;2023-03-13T04:23:13;14.50;;;5.03;;
20861;SDS011;10591;52.532;13.348;2023-03-13T04:25:44;13.38;;;5.20;;
20861;SDS011;10591;52.532;13.348;2023-03-13T04:28:14;10.65;;;4.95;;
20861;SDS011;10591;52.532;13.348;2023-03-13T04:30:45;14.35;;;5.25;;
20861;SDS011;10591;52.532;13.348;2023-03-13T04:33:16;13.43;;;5.22;;
20861;SDS011;10591;52.532;13.348;2023-03-13T04:35:49;10.23;;;5.62;;
20861;SDS011;10591;52.532;13.348;2023-03-13T04:38:20;13.93;;;5.05;;
20861;SDS011;10591;52.532;13.348;2023-03-13T04:40:51;11.75;;;4.95;;
20861;SDS011;10591;52.532;13.348;2023-03-13T04:43:21;10.98;;;4.67;;
20861;SDS011;10591;52.532;13.348;2023-03-13T04:45:52;12.95;;;5.53;;
20861;SDS011;10591;52.532;13.348;2023-03-13T04:48:23;14.33;;;5.22;;
20861;SDS011;10591;52.532;13.348;2023-03-13T04:50:53;13.45;;;4.45;;
20861;SDS011;10591;52.532;13.348;2023-03-13T04:53:25;14.68;;;4.97;;
20861;SDS011;10591;52.532;13.348;2023-03-13T04:55:56;13.32;;;4.72;;
20861;SDS011;10591;52.532;13.348;2023-03-13T04:58:27;19.85;;;5.70;;
20861;SDS011;10591;52.532;13.348;2023-03-13T05:00:58;14.87;;;5.00;;
20861;SDS011;10591;52.532;13.348;2023-03-13T05:03:29;11.30;;;5.00;;
20861;SDS011;10591;52.532;13.348;2023-03-13T05:05:59;15.72;;;5.37;;
20861;SDS011;10591;52.532;13.348;2023-03-13T05:08:31;15.18;;;5.10;;
20861;SDS011;10591;52.532;13.348;2023-03-13T05:11:05;14.63;;;5.30;;
20861;SDS011;10591;52.532;13.348;2023-03-13T05:13:35;13.40;;;5.08;;
20861;SDS011;10591;52.532;13.348;2023-03-13T05:16:06;14.95;;;4.90;;
20861;SDS011;10591;52.532;13.348;2023-03-13T05:18:37;10.95;;;4.72;;
20861;SDS011;10591;52.532;13.348;2023-03-13T05:21:07;14.90;;;4.92;;
20861;SDS011;10591;52.532;13.348;2023-03-13T05:23:38;15.23;;;5.25;;
20861;SDS011;10591;52.532;13.348;2023-03-13T05:26:09;13.08;;;5.20;;
20861;SDS011;10591;52.532;13.348;2023-03-13T05:28:42;15.85;;;4.90;;
20861;SDS011;10591;52.532;13.348;2023-03-13T05:31:12;12.15;;;4.60;;
20861;SDS011;10591;52.532;13.348;2023-03-13T05:33:43;16.62;;;5.05;;
20861;SDS011;10591;52.532;13.348;2023-03-13T05:36:15;15.00;;;5.30;;
20861;SDS011;10591;52.532;13.348;2023-03-13T05:38:46;13.10;;;5.10;;
20861;SDS011;10591;52.532;13.348;2023-03-13T05:41:16;11.80;;;4.60;;
20861;SDS011;10591;52.532;13.348;2023-03-13T05:43:47;15.30;;;5.47;;
20861;SDS011;10591;52.532;13.348;2023-03-13T05:46:18;14.28;;;5.53;;
20861;SDS011;10591;52.532;13.348;2023-03-13T05:48:51;14.68;;;4.92;;
20861;SDS011;10591;52.532;13.348;2023-03-13T05:51:22;18.00;;;4.85;;
20861;SDS011;10591;52.532;13.348;2023-03-13T05:53:52;14.80;;;5.93;;
20861;SDS011;10591;52.532;13.348;2023-03-13T05:56:24;15.55;;;5.10;;
20861;SDS011;10591;52.532;13.348;2023-03-13T05:58:54;16.90;;;5.53;;
20861;SDS011;10591;52.532;13.348;2023-03-13T06:01:25;15.28;;;4.55;;
20861;SDS011;10591;52.532;13.348;2023-03-13T06:03:56;16.62;;;5.22;;
20861;SDS011;10591;52.532;13.348;2023-03-13T06:06:28;15.03;;;5.23;;
20861;SDS011;10591;52.532;13.348;2023-03-13T06:09:02;17.98;;;5.53;;
20861;SDS011;10591;52.532;13.348;2023-03-13T06:11:33;16.27;;;5.78;;
20861;SDS011;10591;52.532;13.348;2023-03-13T06:14:03;15.43;;;5.22;;
20861;SDS011;10591;52.532;13.348;2023-03-13T06:16:35;11.73;;;4.62;;
20861;SDS011;10591;52.532;13.348;2023-03-13T06:19:06;14.65;;;5.58;;
20861;SDS011;10591;52.532;13.348;2023-03-13T06:21:39;17.77;;;5.45;;
20861;SDS011;10591;52.532;13.348;2023-03-13T06:24:10;15.98;;;5.37;;
20861;SDS011;10591;52.532;13.348;2023-03-13T06:26:41;17.87;;;6.58;;
20861;SDS011;10591;52.532;13.348;2023-03-13T06:29:12;12.53;;;5.62;;
20861;SDS011;10591;52.532;13.348;2023-03-13T06:31:47;13.68;;;5.20;;
20861;SDS011;10591;52.532;13.348;2023-03-13T06:34:19;14.28;;;5.55;;
20861;SDS011;10591;52.532;13.348;2023-03-13T06:36:49;19.00;;;5.33;;
20861;SDS011;10591;52.532;13.348;2023-03-13T06:39:20;12.55;;;6.05;;
20861;SDS011;10591;52.532;13.348;2023-03-13T06:41:51;14.80;;;6.22;;
20861;SDS011;10591;52.532;13.348;2023-03-13T06:44:22;17.77;;;5.72;;
20861;SDS011;10591;52.532;13.348;2023-03-13T06:46:53;17.90;;;6.05;;
20861;SDS011;10591;52.532;13.348;2023-03-13T06:49:24;16.93;;;5.78;;
20861;SDS011;10591;52.532;13.348;2023-03-13T06:52:01;11.50;;;5.60;;
20861;SDS011;10591;52.532;13.348;2023-03-13T06:54:27;14.20;;;5.35;;
20861;SDS011;10591;52.532;13.348;2023-03-13T06:56:57;18.30;;;6.50;;
20861;SDS011;10591;52.532;13.348;2023-03-13T06:59:28;19.70;;;5.97;;
20861;SDS011;10591;52.532;13.348;2023-03-13T07:01:59;18.35;;;6.25;;
20861;SDS011;10591;52.532;13.348;2023-03-13T07:04:31;12.70;;;5.60;;
20861;SDS011;10591;52.532;13.348;2023-03-13T07:07:03;17.30;;;6.33;;
20861;SDS011;10591;52.532;13.348;2023-03-13T07:09:33;17.45;;;5.80;;
20861;SDS011;10591;52.532;13.348;2023-03-13T07:12:04;17.00;;;5.78;;
20861;SDS011;10591;52.532;13.348;2023-03-13T07:14:35;16.15;;;5.85;;
20861;SDS011;10591;52.532;13.348;2023-03-13T07:17:05;17.95;;;5.25;;
20861;SDS011;10591;52.532;13.348;2023-03-13T07:19:36;16.23;;;5.60;;
20861;SDS011;10591;52.532;13.348;2023-03-13T07:22:07;13.72;;;5.55;;
20861;SDS011;10591;52.532;13.348;2023-03-13T07:24:38;14.70;;;5.83;;
20861;SDS011;10591;52.532;13.348;2023-03-13T07:27:09;15.60;;;5.65;;
20861;SDS011;10591;52.532;13.348;2023-03-13T07:29:41;18.15;;;5.65;;
20861;SDS011;10591;52.532;13.348;2023-03-13T07:32:13;16.62;;;5.75;;
20861;SDS011;10591;52.532;13.348;2023-03-13T07:34:44;14.95;;;5.33;;
20861;SDS011;10591;52.532;13.348;2023-03-13T07:37:17;16.95;;;5.05;;
20861;SDS011;10591;52.532;13.348;2023-03-13T07:39:48;16.23;;;5.05;;
20861;SDS011;10591;52.532;13.348;2023-03-13T07:42:20;15.48;;;6.00;;
20861;SDS011;10591;52.532;13.348;2023-03-13T07:44:52;16.45;;;5.47;;
20861;SDS011;10591;52.532;13.348;2023-03-13T07:47:22;15.80;;;5.53;;
20861;SDS011;10591;52.532;13.348;2023-03-13T07:49:53;14.35;;;5.25;;
20861;SDS011;10591;52.532;13.348;2023-03-13T07:52:24;15.88;;;4.87;;
20861;SDS011;10591;52.532;13.348;2023-03-13T07:54:55;14.28;;;5.08;;
20861;SDS011;10591;52.532;13.348;2023-03-13T07:57:26;13.85;;;4.87;;
20861;SDS011;10591;52.532;13.348;2023-03-13T08:00:01;13.85;;;4.92;;
20861;SDS011;10591;52.532;13.348;2023-03-13T08:02:34;12.37;;;4.53;;
20861;SDS011;10591;52.532;13.348;2023-03-13T08:05:05;14.58;;;4.85;;
20861;SDS011;10591;52.532;13.348;2023-03-13T08:07:37;14.10;;;4.62;;
20861;SDS011;10591;52.532;13.348;2023-03-13T08:10:09;14.60;;;5.50;;
20861;SDS011;10591;52.532;13.348;2023-03-13T08:12:40;11.95;;;5.10;;
20861;SDS011;10591;52.532;13.348;2023-03-13T08:15:10;15.18;;;5.22;;
20861;SDS011;10591;52.532;13.348;2023-03-13T08:17:42;13.83;;;5.03;;
20861;SDS011;10591;52.532;13.348;2023-03-13T08:20:12;11.08;;;5.00;;
20861;SDS011;10591;52.532;13.348;2023-03-13T08:22:45;15.98;;;5.50;;
20861;SDS011;10591;52.532;13.348;2023-03-13T08:25:18;12.63;;;4.25;;
20861;SDS011;10591;52.532;13.348;2023-03-13T08:27:50;14.63;;;5.20;;
20861;SDS011;10591;52.532;13.348;2023-03-13T08:30:22;9.30;;;4.45;;
20861;SDS011;10591;52.532;13.348;2023-03-13T08:32:52;12.93;;;4.97;;
20861;SDS011;10591;52.532;13.348;2023-03-13T08:35:23;13.10;;;4.30;;
20861;SDS011;10591;52.532;13.348;2023-03-13T08:37:53;16.65;;;5.40;;
20861;SDS011;10591;52.532;13.348;2023-03-13T08:40:26;11.28;;;4.12;;
20861;SDS011;10591;52.532;13.348;2023-03-13T08:42:57;14.20;;;4.42;;
20861;SDS011;10591;52.532;13.348;2023-03-13T08:45:29;8.53;;;4.10;;
20861;SDS011;10591;52.532;13.348;2023-03-13T08:48:01;11.25;;;4.30;;
20861;SDS011;10591;52.532;13.348;2023-03-13T08:50:34;13.20;;;4.20;;
20861;SDS011;10591;52.532;13.348;2023-03-13T08:53:05;15.72;;;4.62;;
20861;SDS011;10591;52.532;13.348;2023-03-13T08:55:37;13.65;;;4.80;;
20861;SDS011;10591;52.532;13.348;2023-03-13T08:58:08;14.15;;;4.67;;
20861;SDS011;10591;52.532;13.348;2023-03-13T09:00:43;11.03;;;4.50;;
20861;SDS011;10591;52.532;13.348;2023-03-13T09:03:13;13.08;;;4.40;;
20861;SDS011;10591;52.532;13.348;2023-03-13T09:05:45;11.65;;;4.10;;
20861;SDS011;10591;52.532;13.348;2023-03-13T09:08:17;11.08;;;4.67;;
20861;SDS011;10591;52.532;13.348;2023-03-13T09:11:05;11.40;;;4.25;;
20861;SDS011;10591;52.532;13.348;2023-03-13T09:13:39;7.62;;;3.95;;
20861;SDS011;10591;52.532;13.348;2023-03-13T09:16:13;10.38;;;3.85;;
20861;SDS011;10591;52.532;13.348;2023-03-13T09:18:52;9.90;;;4.17;;
20861;SDS011;10591;52.532;13.348;2023-03-13T09:21:30;9.45;;;4.05;;
20861;SDS011;10591;52.532;13.348;2023-03-13T09:24:03;9.98;;;4.00;;
20861;SDS011;10591;52.532;13.348;2023-03-13T09:26:34;10.32;;;4.00;;
20861;SDS011;10591;52.532;13.348;2023-03-13T09:29:04;10.93;;;3.67;;
20861;SDS011;10591;52.532;13.348;2023-03-13T09:31:37;7.95;;;3.70;;
20861;SDS011;10591;52.532;13.348;2023-03-13T09:34:11;8.35;;;3.42;;
20861;SDS011;10591;52.532;13.348;2023-03-13T09:36:41;8.43;;;4.25;;
20861;SDS011;10591;52.532;13.348;2023-03-13T09:39:12;10.90;;;3.77;;
20861;SDS011;10591;52.532;13.348;2023-03-13T09:41:52;5.17;;;3.40;;
20861;SDS011;10591;52.532;13.348;2023-03-13T09:44:41;10.82;;;4.20;;
20861;SDS011;10591;52.532;13.348;2023-03-13T09:47:21;10.85;;;3.77;;
20861;SDS011;10591;52.532;13.348;2023-03-13T09:49:51;7.70;;;3.62;;
20861;SDS011;10591;52.532;13.348;2023-03-13T09:52:24;8.45;;;3.10;;
20861;SDS011;10591;52.532;13.348;2023-03-13T09:55:00;9.13;;;3.67;;
20861;SDS011;10591;52.532;13.348;2023-03-13T09:57:37;8.55;;;3.50;;
20861;SDS011;10591;52.532;13.348;2023-03-13T10:00:15;9.98;;;4.20;;
20861;SDS011;10591;52.532;13.348;2023-03-13T10:02:57;9.95;;;3.77;;
20861;SDS011;10591;52.532;13.348;2023-03-13T10:05:34;10.88;;;3.22;;
20861;SDS011;10591;52.532;13.348;2023-03-13T10:08:16;5.65;;;3.52;;
20861;SDS011;10591;52.532;13.348;2023-03-13T10:10:50;6.90;;;2.77;;
20861;SDS011;10591;52.532;13.348;2023-03-13T10:13:27;7.62;;;3.55;;
20861;SDS011;10591;52.532;13.348;2023-03-13T10:16:00;8.05;;;2.87;;
20861;SDS011;10591;52.532;13.348;2023-03-13T10:18:37;4.20;;;2.83;;
20861;SDS011;10591;52.532;13.348;2023-03-13T10:21:15;7.97;;;3.25;;
20861;SDS011;10591;52.532;13.348;2023-03-13T10:23:53;6.30;;;2.92;;
20861;SDS011;10591;52.532;13.348;2023-03-13T10:26:36;6.05;;;2.83;;
20861;SDS011;10591;52.532;13.348;2023-03-13T10:29:26;8.23;;;2.95;;
20861;SDS011;10591;52.532;13.348;2023-03-13T10:31:56;5.80;;;3.40;;
20861;SDS011;10591;52.532;13.348;2023-03-13T10:37:28;6.70;;;3.02;;
20861;SDS011;10591;52.532;13.348;2023-03-13T10:40:24;5.05;;;2.60;;
20861;SDS011;10591;52.532;13.348;2023-03-13T10:43:05;4.17;;;2.45;;
20861;SDS011;10591;52.532;13.348;2023-03-13T10:45:34;6.37;;;2.80;;
20861;SDS011;10591;52.532;13.348;2023-03-13T10:48:13;3.83;;;2.58;;
20861;SDS011;10591;52.532;13.348;2023-03-13T10:50:46;4.00;;;2.70;;
20861;SDS011;10591;52.532;13.348;2023-03-13T10:56:07;4.67;;;2.98;;
20861;SDS011;10591;52.532;13.348;2023-03-13T10:58:42;7.10;;;2.87;;
20861;SDS011;10591;52.532;13.348;2023-03-13T11:01:21;4.90;;;2.70;;
20861;SDS011;10591;52.532;13.348;2023-03-13T11:03:55;4.65;;;2.60;;
20861;SDS011;10591;52.532;13.348;2023-03-13T11:06:30;4.78;;;2.20;;
20861;SDS011;10591;52.532;13.348;2023-03-13T11:09:10;4.08;;;2.45;;
20861;SDS011;10591;52.532;13.348;2023-03-13T11:11:44;3.52;;;2.40;;
20861;SDS011;10591;52.532;13.348;2023-03-13T11:14:19;6.20;;;2.25;;
20861;SDS011;10591;52.532;13.348;2023-03-13T11:17:08;2.87;;;2.10;;
20861;SDS011;10591;52.532;13.348;2023-03-13T11:19:43;3.98;;;2.12;;
20861;SDS011;10591;52.532;13.348;2023-03-13T11:25:32;3.58;;;2.67;;
20861;SDS011;10591;52.532;13.348;2023-03-13T11:28:10;4.05;;;2.20;;
20861;SDS011;10591;52.532;13.348;2023-03-13T11:37:01;3.83;;;1.90;;
20861;SDS011;10591;52.532;13.348;2023-03-13T11:45:45;2.10;;;1.70;;
20861;SDS011;10591;52.532;13.348;2023-03-13T11:59:27;2.72;;;1.72;;
20861;SDS011;10591;52.532;13.348;2023-03-13T12:07:34;3.72;;;1.80;;
20861;SDS011;10591;52.532;13.348;2023-03-13T12:12:54;2.90;;;1.70;;
20861;SDS011;10591;52.532;13.348;2023-03-13T12:15:38;2.00;;;1.80;;
20861;SDS011;10591;52.532;13.348;2023-03-13T12:18:29;2.10;;;1.52;;
20861;SDS011;10591;52.532;13.348;2023-03-13T12:21:14;4.20;;;1.60;;
20861;SDS011;10591;52.532;13.348;2023-03-13T12:27:57;2.00;;;1.65;;
20861;SDS011;10591;52.532;13.348;2023-03-13T12:30:05;2.42;;;1.72;;
20861;SDS011;10591;52.532;13.348;2023-03-13T12:32:39;1.92;;;1.70;;
20861;SDS011;10591;52.532;13.348;2023-03-13T12:35:18;1.55;;;1.42;;
20861;SDS011;10591;52.532;13.348;2023-03-13T12:43:19;1.80;;;1.60;;
20861;SDS011;10591;52.532;13.348;2023-03-13T12:54:31;1.50;;;1.35;;
20861;SDS011;10591;52.532;13.348;2023-03-13T12:59:54;2.17;;;1.82;;
20861;SDS011;10591;52.532;13.348;2023-03-13T13:02:27;1.90;;;1.70;;
20861;SDS011;10591;52.532;13.348;2023-03-13T13:05:00;1.98;;;1.50;;
20861;SDS011;10591;52.532;13.348;2023-03-13T13:07:36;2.08;;;1.82;;
20861;SDS011;10591;52.532;13.348;2023-03-13T13:12:44;2.12;;;1.70;;
20861;SDS011;10591;52.532;13.348;2023-03-13T13:15:26;1.50;;;1.40;;
20861;SDS011;10591;52.532;13.348;2023-03-13T13:18:03;1.57;;;1.47;;
20861;SDS011;10591;52.532;13.348;2023-03-13T13:20:47;1.55;;;1.40;;
20861;SDS011;10591;52.532;13.348;2023-03-13T13:37:23;1.80;;;1.70;;
20861;SDS011;10591;52.532;13.348;2023-03-13T13:39:43;1.98;;;1.60;;
20861;SDS011;10591;52.532;13.348;2023-03-13T13:47:50;1.75;;;1.45;;
20861;SDS011;10591;52.532;13.348;2023-03-13T13:50:26;1.57;;;1.40;;
20861;SDS011;10591;52.532;13.348;2023-03-13T13:53:26;1.95;;;1.80;;
20861;SDS011;10591;52.532;13.348;2023-03-13T13:56:49;1.87;;;1.70;;
20861;SDS011;10591;52.532;13.348;2023-03-13T14:04:45;2.35;;;1.57;;
20861;SDS011;10591;52.532;13.348;2023-03-13T14:07:18;1.82;;;1.55;;
20861;SDS011;10591;52.532;13.348;2023-03-13T14:10:25;2.37;;;1.70;;
20861;SDS011;10591;52.532;13.348;2023-03-13T14:13:00;2.37;;;1.47;;
20861;SDS011;10591;52.532;13.348;2023-03-13T14:15:33;2.52;;;1.95;;
20861;SDS011;10591;52.532;13.348;2023-03-13T14:20:57;3.05;;;2.02;;
20861;SDS011;10591;52.532;13.348;2023-03-13T14:23:31;2.45;;;1.80;;
20861;SDS011;10591;52.532;13.348;2023-03-13T14:26:16;2.10;;;1.80;;
20861;SDS011;10591;52.532;13.348;2023-03-13T14:28:59;2.70;;;1.87;;
20861;SDS011;10591;52.532;13.348;2023-03-13T14:31:34;3.08;;;1.80;;
20861;SDS011;10591;52.532;13.348;2023-03-13T14:34:10;4.37;;;1.87;;
20861;SDS011;10591;52.532;13.348;2023-03-13T14:37:05;3.08;;;2.20;;
20861;SDS011;10591;52.532;13.348;2023-03-13T14:42:14;4.25;;;2.22;;
20861;SDS011;10591;52.532;13.348;2023-03-13T14:44:46;2.27;;;2.00;;
20861;SDS011;10591;52.532;13.348;2023-03-13T14:47:24;3.40;;;2.10;;
20861;SDS011;10591;52.532;13.348;2023-03-13T14:50:00;3.52;;;1.75;;
20861;SDS011;10591;52.532;13.348;2023-03-13T14:52:33;6.15;;;1.95;;
20861;SDS011;10591;52.532;13.348;2023-03-13T14:55:06;4.12;;;1.98;;
20861;SDS011;10591;52.532;13.348;2023-03-13T14:57:39;4.72;;;2.27;;
20861;SDS011;10591;52.532;13.348;2023-03-13T15:06:05;2.12;;;1.80;;
20861;SDS011;10591;52.532;13.348;2023-03-13T15:08:46;1.80;;;1.67;;
20861;SDS011;10591;52.532;13.348;2023-03-13T15:11:25;3.47;;;1.75;;
20861;SDS011;10591;52.532;13.348;2023-03-13T15:14:02;2.20;;;1.90;;
20861;SDS011;10591;52.532;13.348;2023-03-13T15:16:34;2.30;;;1.87;;
20861;SDS011;10591;52.532;13.348;2023-03-13T15:19:06;2.22;;;1.70;;
20861;SDS011;10591;52.532;13.348;2023-03-13T15:21:39;2.33;;;1.85;;
20861;SDS011;10591;52.532;13.348;2023-03-13T15:24:11;3.50;;;1.82;;
20861;SDS011;10591;52.532;13.348;2023-03-13T15:26:43;4.45;;;1.95;;
20861;SDS011;10591;52.532;13.348;2023-03-13T15:29:16;1.70;;;1.60;;
20861;SDS011;10591;52.532;13.348;2023-03-13T15:31:49;2.60;;;2.00;;
20861;SDS011;10591;52.532;13.348;2023-03-13T15:34:21;2.72;;;1.92;;
20861;SDS011;10591;52.532;13.348;2023-03-13T15:36:53;2.47;;;1.75;;
20861;SDS011;10591;52.532;13.348;2023-03-13T15:39:23;2.02;;;1.82;;
20861;SDS011;10591;52.532;13.348;2023-03-13T15:41:57;1.75;;;1.50;;
20861;SDS011;10591;52.532;13.348;2023-03-13T15:44:31;1.80;;;1.50;;
20861;SDS011;10591;52.532;13.348;2023-03-13T15:47:05;2.12;;;1.70;;
20861;SDS011;10591;52.532;13.348;2023-03-13T15:49:37;2.10;;;1.87;;
20861;SDS011;10591;52.532;13.348;2023-03-13T15:52:16;1.65;;;1.52;;
20861;SDS011;10591;52.532;13.348;2023-03-13T15:54:52;3.17;;;1.70;;
20861;SDS011;10591;52.532;13.348;2023-03-13T15:57:25;2.33;;;1.60;;
20861;SDS011;10591;52.532;13.348;2023-03-13T15:59:57;1.92;;;1.80;;
20861;SDS011;10591;52.532;13.348;2023-03-13T16:02:27;3.35;;;1.75;;
20861;SDS011;10591;52.532;13.348;2023-03-13T16:05:00;2.67;;;1.87;;
20861;SDS011;10591;52.532;13.348;2023-03-13T16:07:30;2.10;;;1.90;;
20861;SDS011;10591;52.532;13.348;2023-03-13T16:10:18;3.02;;;1.98;;
20861;SDS011;10591;52.532;13.348;2023-03-13T16:12:54;3.35;;;2.02;;
20861;SDS011;10591;52.532;13.348;2023-03-13T16:15:25;2.22;;;1.87;;
20861;SDS011;10591;52.532;13.348;2023-03-13T16:17:56;2.02;;;1.90;;
20861;SDS011;10591;52.532;13.348;2023-03-13T16:20:27;3.17;;;1.82;;
20861;SDS011;10591;52.532;13.348;2023-03-13T16:22:59;1.82;;;1.72;;
20861;SDS011;10591;52.532;13.348;2023-03-13T16:25:34;3.62;;;2.10;;
20861;SDS011;10591;52.532;13.348;2023-03-13T16:28:09;2.05;;;1.85;;
20861;SDS011;10591;52.532;13.348;2023-03-13T16:30:40;4.42;;;2.30;;
20861;SDS011;10591;52.532;13.348;2023-03-13T16:33:12;2.08;;;1.90;;
20861;SDS011;10591;52.532;13.348;2023-03-13T16:35:42;2.27;;;1.95;;
20861;SDS011;10591;52.532;13.348;2023-03-13T16:38:13;6.15;;;2.10;;
20861;SDS011;10591;52.532;13.348;2023-03-13T16:40:44;2.92;;;2.27;;
20861;SDS011;10591;52.532;13.348;2023-03-13T16:43:16;2.58;;;1.90;;
20861;SDS011;10591;52.532;13.348;2023-03-13T16:45:47;3.17;;;2.10;;